sensor_id;sensor_type;location;lat;lon;timestamp;temperature;humidity
52275;DHT22;38228;50.940;4.024;2023-12-07T00:01:14;4.30;99.90
52275;DHT22;38228;50.940;4.024;2023-12-07T00:03:40;4.30;99.90
52275;DHT22;38228;50.940;4.024;2023-12-07T00:06:06;4.10;99.90
52275;DHT22;38228;50.940;4.024;2023-12-07T00:08:31;4.20;99.90
52275;DHT22;38228;50.940;4.024;2023-12-07T00:10:57;4.20;99.90
52275;DHT22;38228;50.940;4.024;2023-12-07T00:13:23;4.00;99.90
52275;DHT22;38228;50.940;4.024;2023-12-07T00:15:48;4.10;99.90
52275;DHT22;38228;50.940;4.024;2023-12-07T00:18:14;4.10;99.90
52275;DHT22;38228;50.940;4.024;2023-12-07T00:20:40;4.10;99.90
52275;DHT22;38228;50.940;4.024;2023-12-07T00:23:05;4.20;99.90
52275;DHT22;38228;50.940;4.024;2023-12-07T00:25:31;4.30;99.90
52275;DHT22;38228;50.940;4.024;2023-12-07T00:27:57;4.20;99.90
52275;DHT22;38228;50.940;4.024;2023-12-07T00:30:23;4.30;99.90
52275;DHT22;38228;50.940;4.024;2023-12-07T00:32:48;4.40;99.90
52275;DHT22;38228;50.940;4.024;2023-12-07T00:35:14;4.40;99.90
52275;DHT22;38228;50.940;4.024;2023-12-07T00:37:41;4.30;99.90
52275;DHT22;38228;50.940;4.024;2023-12-07T00:40:07;4.30;99.90
52275;DHT22;38228;50.940;4.024;2023-12-07T00:42:33;4.40;99.90
52275;DHT22;38228;50.940;4.024;2023-12-07T00:45:00;4.30;99.90
52275;DHT22;38228;50.940;4.024;2023-12-07T00:47:26;4.20;99.90
52275;DHT22;38228;50.940;4.024;2023-12-07T00:49:52;4.20;99.90
52275;DHT22;38228;50.940;4.024;2023-12-07T00:52:17;4.30;99.90
52275;DHT22;38228;50.940;4.024;2023-12-07T00:54:43;4.30;99.90
52275;DHT22;38228;50.940;4.024;2023-12-07T00:57:09;4.30;99.90
52275;DHT22;38228;50.940;4.024;2023-12-07T00:59:35;4.30;99.90
52275;DHT22;38228;50.940;4.024;2023-12-07T01:02:03;4.20;99.90
52275;DHT22;38228;50.940;4.024;2023-12-07T01:04:29;4.30;99.90
52275;DHT22;38228;50.940;4.024;2023-12-07T01:06:55;4.30;99.90
52275;DHT22;38228;50.940;4.024;2023-12-07T01:09:21;4.20;99.90
52275;DHT22;38228;50.940;4.024;2023-12-07T01:11:47;4.20;99.90
52275;DHT22;38228;50.940;4.024;2023-12-07T01:14:13;4.10;99.90
52275;DHT22;38228;50.940;4.024;2023-12-07T01:16:39;4.10;99.90
52275;DHT22;38228;50.940;4.024;2023-12-07T01:19:04;4.20;99.90
52275;DHT22;38228;50.940;4.024;2023-12-07T01:21:32;4.10;99.90
52275;DHT22;38228;50.940;4.024;2023-12-07T01:23:58;4.20;99.90
52275;DHT22;38228;50.940;4.024;2023-12-07T01:26:24;4.30;99.90
52275;DHT22;38228;50.940;4.024;2023-12-07T01:28:49;4.30;99.90
52275;DHT22;38228;50.940;4.024;2023-12-07T01:31:15;4.20;99.90
52275;DHT22;38228;50.940;4.024;2023-12-07T01:33:45;4.30;99.90
52275;DHT22;38228;50.940;4.024;2023-12-07T01:36:11;4.40;99.90
52275;DHT22;38228;50.940;4.024;2023-12-07T01:38:37;4.50;99.90
52275;DHT22;38228;50.940;4.024;2023-12-07T01:41:04;4.50;99.90
52275;DHT22;38228;50.940;4.024;2023-12-07T01:43:30;4.50;99.90
52275;DHT22;38228;50.940;4.024;2023-12-07T01:45:57;4.50;99.90
52275;DHT22;38228;50.940;4.024;2023-12-07T01:48:25;4.50;99.90
52275;DHT22;38228;50.940;4.024;2023-12-07T01:54:16;4.50;99.90
52275;DHT22;38228;50.940;4.024;2023-12-07T01:56:42;4.30;99.90
52275;DHT22;38228;50.940;4.024;2023-12-07T01:59:08;4.30;99.90
52275;DHT22;38228;50.940;4.024;2023-12-07T02:01:34;4.30;99.90
52275;DHT22;38228;50.940;4.024;2023-12-07T02:04:00;4.30;99.90
52275;DHT22;38228;50.940;4.024;2023-12-07T02:06:26;4.40;99.90
52275;DHT22;38228;50.940;4.024;2023-12-07T02:08:52;4.30;99.90
52275;DHT22;38228;50.940;4.024;2023-12-07T02:11:17;4.40;99.90
52275;DHT22;38228;50.940;4.024;2023-12-07T02:13:44;4.50;99.90
52275;DHT22;38228;50.940;4.024;2023-12-07T02:16:31;4.50;99.90
52275;DHT22;38228;50.940;4.024;2023-12-07T02:19:02;4.30;99.90
52275;DHT22;38228;50.940;4.024;2023-12-07T02:21:59;4.30;99.90
52275;DHT22;38228;50.940;4.024;2023-12-07T02:24:27;4.20;99.90
52275;DHT22;38228;50.940;4.024;2023-12-07T02:26:56;4.30;99.90
52275;DHT22;38228;50.940;4.024;2023-12-07T02:29:22;4.30;99.90
52275;DHT22;38228;50.940;4.024;2023-12-07T02:31:47;4.30;99.90
52275;DHT22;38228;50.940;4.024;2023-12-07T02:34:13;4.30;99.90
52275;DHT22;38228;50.940;4.024;2023-12-07T02:36:40;4.30;99.90
52275;DHT22;38228;50.940;4.024;2023-12-07T02:39:07;4.40;99.90
52275;DHT22;38228;50.940;4.024;2023-12-07T02:41:35;4.30;99.90
52275;DHT22;38228;50.940;4.024;2023-12-07T02:44:02;4.30;99.90
52275;DHT22;38228;50.940;4.024;2023-12-07T02:46:28;4.40;99.90
52275;DHT22;38228;50.940;4.024;2023-12-07T02:48:54;4.40;99.90
52275;DHT22;38228;50.940;4.024;2023-12-07T02:51:20;4.40;99.90
52275;DHT22;38228;50.940;4.024;2023-12-07T02:53:45;4.50;99.90
52275;DHT22;38228;50.940;4.024;2023-12-07T02:56:11;4.40;99.90
52275;DHT22;38228;50.940;4.024;2023-12-07T02:58:37;4.30;99.90
52275;DHT22;38228;50.940;4.024;2023-12-07T03:01:03;4.20;99.90
52275;DHT22;38228;50.940;4.024;2023-12-07T03:03:28;4.20;99.90
52275;DHT22;38228;50.940;4.024;2023-12-07T03:05:54;4.30;99.90
52275;DHT22;38228;50.940;4.024;2023-12-07T03:08:19;4.30;99.90
52275;DHT22;38228;50.940;4.024;2023-12-07T03:10:45;4.40;99.90
52275;DHT22;38228;50.940;4.024;2023-12-07T03:13:11;4.40;99.90
52275;DHT22;38228;50.940;4.024;2023-12-07T03:15:36;4.40;99.90
52275;DHT22;38228;50.940;4.024;2023-12-07T03:18:02;4.50;99.90
52275;DHT22;38228;50.940;4.024;2023-12-07T03:20:28;4.50;99.90
52275;DHT22;38228;50.940;4.024;2023-12-07T03:22:54;4.40;99.90
52275;DHT22;38228;50.940;4.024;2023-12-07T03:25:19;4.50;99.90
52275;DHT22;38228;50.940;4.024;2023-12-07T03:27:45;4.50;99.90
52275;DHT22;38228;50.940;4.024;2023-12-07T03:30:11;4.50;99.90
52275;DHT22;38228;50.940;4.024;2023-12-07T03:32:37;4.60;99.90
52275;DHT22;38228;50.940;4.024;2023-12-07T03:35:03;4.70;99.90
52275;DHT22;38228;50.940;4.024;2023-12-07T03:37:28;4.60;99.90
52275;DHT22;38228;50.940;4.024;2023-12-07T03:39:54;4.60;99.90
52275;DHT22;38228;50.940;4.024;2023-12-07T03:42:20;4.70;99.90
52275;DHT22;38228;50.940;4.024;2023-12-07T03:44:45;4.70;99.90
52275;DHT22;38228;50.940;4.024;2023-12-07T03:47:11;4.70;99.90
52275;DHT22;38228;50.940;4.024;2023-12-07T03:49:37;4.70;99.90
52275;DHT22;38228;50.940;4.024;2023-12-07T03:52:04;4.80;99.90
52275;DHT22;38228;50.940;4.024;2023-12-07T03:54:30;4.70;99.90
52275;DHT22;38228;50.940;4.024;2023-12-07T03:56:55;4.60;99.90
52275;DHT22;38228;50.940;4.024;2023-12-07T03:59:21;4.60;99.90
52275;DHT22;38228;50.940;4.024;2023-12-07T04:01:47;4.60;99.90
52275;DHT22;38228;50.940;4.024;2023-12-07T04:04:13;4.70;99.90
52275;DHT22;38228;50.940;4.024;2023-12-07T04:06:38;4.80;99.90
52275;DHT22;38228;50.940;4.024;2023-12-07T04:09:04;4.70;99.90
52275;DHT22;38228;50.940;4.024;2023-12-07T04:11:30;4.70;99.90
52275;DHT22;38228;50.940;4.024;2023-12-07T04:13:55;4.70;99.90
52275;DHT22;38228;50.940;4.024;2023-12-07T04:16:21;4.60;99.90
52275;DHT22;38228;50.940;4.024;2023-12-07T04:18:47;4.70;99.90
52275;DHT22;38228;50.940;4.024;2023-12-07T04:21:12;4.80;99.90
52275;DHT22;38228;50.940;4.024;2023-12-07T04:23:38;4.70;99.90
52275;DHT22;38228;50.940;4.024;2023-12-07T04:26:04;4.70;99.90
52275;DHT22;38228;50.940;4.024;2023-12-07T04:28:30;4.70;99.90
52275;DHT22;38228;50.940;4.024;2023-12-07T04:30:55;4.70;99.90
52275;DHT22;38228;50.940;4.024;2023-12-07T04:33:21;4.70;99.90
52275;DHT22;38228;50.940;4.024;2023-12-07T04:35:47;4.60;99.90
52275;DHT22;38228;50.940;4.024;2023-12-07T04:38:13;4.50;99.90
52275;DHT22;38228;50.940;4.024;2023-12-07T04:40:38;4.50;99.90
52275;DHT22;38228;50.940;4.024;2023-12-07T04:43:04;4.50;99.90
52275;DHT22;38228;50.940;4.024;2023-12-07T04:45:30;4.50;99.90
52275;DHT22;38228;50.940;4.024;2023-12-07T04:47:55;4.60;99.90
52275;DHT22;38228;50.940;4.024;2023-12-07T04:50:23;4.60;99.90
52275;DHT22;38228;50.940;4.024;2023-12-07T04:52:49;4.50;99.90
52275;DHT22;38228;50.940;4.024;2023-12-07T04:55:14;4.50;99.90
52275;DHT22;38228;50.940;4.024;2023-12-07T04:57:41;4.60;99.90
52275;DHT22;38228;50.940;4.024;2023-12-07T05:00:07;4.70;99.90
52275;DHT22;38228;50.940;4.024;2023-12-07T05:02:36;4.70;99.90
52275;DHT22;38228;50.940;4.024;2023-12-07T05:05:02;4.70;99.90
52275;DHT22;38228;50.940;4.024;2023-12-07T05:07:27;4.70;99.90
52275;DHT22;38228;50.940;4.024;2023-12-07T05:09:53;4.80;99.90
52275;DHT22;38228;50.940;4.024;2023-12-07T05:12:19;4.90;99.90
52275;DHT22;38228;50.940;4.024;2023-12-07T05:14:44;4.80;99.90
52275;DHT22;38228;50.940;4.024;2023-12-07T05:17:10;4.90;99.90
52275;DHT22;38228;50.940;4.024;2023-12-07T05:19:36;4.80;99.90
52275;DHT22;38228;50.940;4.024;2023-12-07T05:22:02;4.70;99.90
52275;DHT22;38228;50.940;4.024;2023-12-07T05:24:28;4.70;99.90
52275;DHT22;38228;50.940;4.024;2023-12-07T05:26:55;4.70;99.90
52275;DHT22;38228;50.940;4.024;2023-12-07T05:29:21;4.70;99.90
52275;DHT22;38228;50.940;4.024;2023-12-07T05:31:49;4.70;99.90
52275;DHT22;38228;50.940;4.024;2023-12-07T05:34:16;4.80;99.90
52275;DHT22;38228;50.940;4.024;2023-12-07T05:36:43;4.70;99.90
52275;DHT22;38228;50.940;4.024;2023-12-07T05:39:08;4.80;99.90
52275;DHT22;38228;50.940;4.024;2023-12-07T05:41:34;4.70;99.90
52275;DHT22;38228;50.940;4.024;2023-12-07T05:44:00;4.50;99.90
52275;DHT22;38228;50.940;4.024;2023-12-07T05:46:26;4.50;99.90
52275;DHT22;38228;50.940;4.024;2023-12-07T05:48:52;4.60;99.90
52275;DHT22;38228;50.940;4.024;2023-12-07T05:51:18;4.60;99.90
52275;DHT22;38228;50.940;4.024;2023-12-07T05:53:46;4.70;99.90
52275;DHT22;38228;50.940;4.024;2023-12-07T05:56:12;4.50;99.90
52275;DHT22;38228;50.940;4.024;2023-12-07T05:58:37;4.60;99.90
52275;DHT22;38228;50.940;4.024;2023-12-07T06:01:03;4.50;99.90
52275;DHT22;38228;50.940;4.024;2023-12-07T06:03:29;4.40;99.90
52275;DHT22;38228;50.940;4.024;2023-12-07T06:05:55;4.50;99.90
52275;DHT22;38228;50.940;4.024;2023-12-07T06:08:21;4.40;99.90
52275;DHT22;38228;50.940;4.024;2023-12-07T06:10:48;4.40;99.90
52275;DHT22;38228;50.940;4.024;2023-12-07T06:13:13;4.40;99.90
52275;DHT22;38228;50.940;4.024;2023-12-07T06:15:40;4.40;99.90
52275;DHT22;38228;50.940;4.024;2023-12-07T06:18:06;4.50;99.90
52275;DHT22;38228;50.940;4.024;2023-12-07T06:20:32;4.50;99.90
52275;DHT22;38228;50.940;4.024;2023-12-07T06:22:58;4.40;99.90
52275;DHT22;38228;50.940;4.024;2023-12-07T06:25:24;4.40;99.90
52275;DHT22;38228;50.940;4.024;2023-12-07T06:27:50;4.30;99.90
52275;DHT22;38228;50.940;4.024;2023-12-07T06:30:16;4.30;99.90
52275;DHT22;38228;50.940;4.024;2023-12-07T06:32:41;4.30;99.90
52275;DHT22;38228;50.940;4.024;2023-12-07T06:35:08;4.20;99.90
52275;DHT22;38228;50.940;4.024;2023-12-07T06:37:33;4.10;99.90
52275;DHT22;38228;50.940;4.024;2023-12-07T06:39:59;4.20;99.90
52275;DHT22;38228;50.940;4.024;2023-12-07T06:42:26;4.10;99.90
52275;DHT22;38228;50.940;4.024;2023-12-07T06:44:52;4.20;99.90
52275;DHT22;38228;50.940;4.024;2023-12-07T06:47:17;4.20;99.90
52275;DHT22;38228;50.940;4.024;2023-12-07T06:49:44;4.40;99.90
52275;DHT22;38228;50.940;4.024;2023-12-07T06:52:11;4.30;99.90
52275;DHT22;38228;50.940;4.024;2023-12-07T06:54:37;4.40;99.90
52275;DHT22;38228;50.940;4.024;2023-12-07T06:57:04;4.40;99.90
52275;DHT22;38228;50.940;4.024;2023-12-07T06:59:32;4.30;99.90
52275;DHT22;38228;50.940;4.024;2023-12-07T07:01:58;4.30;99.90
52275;DHT22;38228;50.940;4.024;2023-12-07T07:04:24;4.30;99.90
52275;DHT22;38228;50.940;4.024;2023-12-07T07:06:49;4.30;99.90
52275;DHT22;38228;50.940;4.024;2023-12-07T07:09:16;4.30;99.90
52275;DHT22;38228;50.940;4.024;2023-12-07T07:11:49;4.30;99.90
52275;DHT22;38228;50.940;4.024;2023-12-07T07:14:15;4.40;99.90
52275;DHT22;38228;50.940;4.024;2023-12-07T07:16:41;4.40;99.90
52275;DHT22;38228;50.940;4.024;2023-12-07T07:19:07;4.20;99.90
52275;DHT22;38228;50.940;4.024;2023-12-07T07:21:32;4.10;99.90
52275;DHT22;38228;50.940;4.024;2023-12-07T07:23:58;4.20;99.90
52275;DHT22;38228;50.940;4.024;2023-12-07T07:26:24;4.30;99.90
52275;DHT22;38228;50.940;4.024;2023-12-07T07:28:51;4.20;99.90
52275;DHT22;38228;50.940;4.024;2023-12-07T07:31:17;4.30;99.90
52275;DHT22;38228;50.940;4.024;2023-12-07T07:33:43;4.20;99.90
52275;DHT22;38228;50.940;4.024;2023-12-07T07:36:10;4.20;99.90
52275;DHT22;38228;50.940;4.024;2023-12-07T07:38:37;4.20;99.90
52275;DHT22;38228;50.940;4.024;2023-12-07T07:41:03;4.20;99.90
52275;DHT22;38228;50.940;4.024;2023-12-07T07:43:29;4.30;99.90
52275;DHT22;38228;50.940;4.024;2023-12-07T07:45:55;4.30;99.90
52275;DHT22;38228;50.940;4.024;2023-12-07T07:48:21;4.40;99.90
52275;DHT22;38228;50.940;4.024;2023-12-07T07:50:47;4.30;99.90
52275;DHT22;38228;50.940;4.024;2023-12-07T07:53:13;4.40;99.90
52275;DHT22;38228;50.940;4.024;2023-12-07T07:55:39;4.40;99.90
52275;DHT22;38228;50.940;4.024;2023-12-07T07:58:04;4.40;99.90
52275;DHT22;38228;50.940;4.024;2023-12-07T08:00:30;4.30;99.90
52275;DHT22;38228;50.940;4.024;2023-12-07T08:02:58;4.40;99.90
52275;DHT22;38228;50.940;4.024;2023-12-07T08:05:23;4.30;99.90
52275;DHT22;38228;50.940;4.024;2023-12-07T08:07:50;4.40;99.90
52275;DHT22;38228;50.940;4.024;2023-12-07T08:10:16;4.30;99.90
52275;DHT22;38228;50.940;4.024;2023-12-07T08:12:42;4.30;99.90
52275;DHT22;38228;50.940;4.024;2023-12-07T08:15:08;4.10;99.90
52275;DHT22;38228;50.940;4.024;2023-12-07T08:17:39;4.20;99.90
52275;DHT22;38228;50.940;4.024;2023-12-07T08:20:07;4.20;99.90
52275;DHT22;38228;50.940;4.024;2023-12-07T08:22:33;4.40;99.90
52275;DHT22;38228;50.940;4.024;2023-12-07T08:24:58;4.50;99.90
52275;DHT22;38228;50.940;4.024;2023-12-07T08:27:25;4.80;99.90
52275;DHT22;38228;50.940;4.024;2023-12-07T08:29:51;4.70;99.90
52275;DHT22;38228;50.940;4.024;2023-12-07T08:32:17;4.50;99.90
52275;DHT22;38228;50.940;4.024;2023-12-07T08:34:44;4.50;99.90
52275;DHT22;38228;50.940;4.024;2023-12-07T08:37:10;4.40;99.90
52275;DHT22;38228;50.940;4.024;2023-12-07T08:39:36;4.40;99.90
52275;DHT22;38228;50.940;4.024;2023-12-07T08:42:02;4.60;99.90
52275;DHT22;38228;50.940;4.024;2023-12-07T08:44:27;4.60;99.90
52275;DHT22;38228;50.940;4.024;2023-12-07T08:46:53;4.50;99.90
52275;DHT22;38228;50.940;4.024;2023-12-07T08:49:19;4.40;99.90
52275;DHT22;38228;50.940;4.024;2023-12-07T08:51:45;4.40;99.90
52275;DHT22;38228;50.940;4.024;2023-12-07T08:54:11;4.50;99.90
52275;DHT22;38228;50.940;4.024;2023-12-07T08:56:37;4.60;99.90
52275;DHT22;38228;50.940;4.024;2023-12-07T08:59:03;4.60;99.90
52275;DHT22;38228;50.940;4.024;2023-12-07T09:14:36;4.70;99.90
52275;DHT22;38228;50.940;4.024;2023-12-07T09:17:02;5.60;99.90
52275;DHT22;38228;50.940;4.024;2023-12-07T09:19:27;5.40;99.90
52275;DHT22;38228;50.940;4.024;2023-12-07T09:21:53;5.10;99.90
52275;DHT22;38228;50.940;4.024;2023-12-07T09:24:18;4.90;99.90
52275;DHT22;38228;50.940;4.024;2023-12-07T09:26:45;5.00;99.90
52275;DHT22;38228;50.940;4.024;2023-12-07T09:29:11;4.90;99.90
52275;DHT22;38228;50.940;4.024;2023-12-07T09:31:36;5.00;99.90
52275;DHT22;38228;50.940;4.024;2023-12-07T09:34:02;5.00;99.90
52275;DHT22;38228;50.940;4.024;2023-12-07T09:36:28;5.20;99.90
52275;DHT22;38228;50.940;4.024;2023-12-07T09:38:53;5.30;99.90
52275;DHT22;38228;50.940;4.024;2023-12-07T09:41:19;5.40;99.90
52275;DHT22;38228;50.940;4.024;2023-12-07T09:43:46;5.40;99.90
52275;DHT22;38228;50.940;4.024;2023-12-07T09:46:12;5.50;99.90
52275;DHT22;38228;50.940;4.024;2023-12-07T09:48:42;5.60;99.90
52275;DHT22;38228;50.940;4.024;2023-12-07T09:51:10;5.80;99.90
52275;DHT22;38228;50.940;4.024;2023-12-07T09:53:38;5.70;99.90
52275;DHT22;38228;50.940;4.024;2023-12-07T09:56:05;5.60;99.90
52275;DHT22;38228;50.940;4.024;2023-12-07T09:58:31;5.70;99.90
52275;DHT22;38228;50.940;4.024;2023-12-07T10:00:57;5.70;99.90
52275;DHT22;38228;50.940;4.024;2023-12-07T10:03:23;5.70;99.90
52275;DHT22;38228;50.940;4.024;2023-12-07T10:05:57;5.70;99.90
52275;DHT22;38228;50.940;4.024;2023-12-07T10:08:30;5.70;99.90
52275;DHT22;38228;50.940;4.024;2023-12-07T10:11:04;5.90;99.90
52275;DHT22;38228;50.940;4.024;2023-12-07T10:13:31;5.90;99.90
52275;DHT22;38228;50.940;4.024;2023-12-07T10:16:14;6.00;99.90
52275;DHT22;38228;50.940;4.024;2023-12-07T10:18:44;5.90;99.90
52275;DHT22;38228;50.940;4.024;2023-12-07T10:21:10;5.90;99.90
52275;DHT22;38228;50.940;4.024;2023-12-07T10:23:37;6.10;99.90
52275;DHT22;38228;50.940;4.024;2023-12-07T10:26:04;6.10;99.90
52275;DHT22;38228;50.940;4.024;2023-12-07T10:28:30;6.10;99.90
52275;DHT22;38228;50.940;4.024;2023-12-07T10:30:59;6.10;99.90
52275;DHT22;38228;50.940;4.024;2023-12-07T10:33:26;6.20;99.90
52275;DHT22;38228;50.940;4.024;2023-12-07T10:35:51;6.20;99.90
52275;DHT22;38228;50.940;4.024;2023-12-07T10:38:17;6.20;99.90
52275;DHT22;38228;50.940;4.024;2023-12-07T10:40:46;6.20;99.90
52275;DHT22;38228;50.940;4.024;2023-12-07T10:43:12;6.20;99.90
52275;DHT22;38228;50.940;4.024;2023-12-07T10:45:40;6.10;99.90
52275;DHT22;38228;50.940;4.024;2023-12-07T10:48:08;6.10;99.90
52275;DHT22;38228;50.940;4.024;2023-12-07T10:50:35;6.10;99.90
52275;DHT22;38228;50.940;4.024;2023-12-07T10:53:19;6.10;99.90
52275;DHT22;38228;50.940;4.024;2023-12-07T10:55:52;6.20;99.90
52275;DHT22;38228;50.940;4.024;2023-12-07T10:58:19;6.30;99.90
52275;DHT22;38228;50.940;4.024;2023-12-07T11:00:45;6.40;99.90
52275;DHT22;38228;50.940;4.024;2023-12-07T11:03:15;6.50;99.90
52275;DHT22;38228;50.940;4.024;2023-12-07T11:05:42;6.70;99.90
52275;DHT22;38228;50.940;4.024;2023-12-07T11:08:12;6.80;99.90
52275;DHT22;38228;50.940;4.024;2023-12-07T11:10:48;6.80;99.90
52275;DHT22;38228;50.940;4.024;2023-12-07T11:15:49;7.10;99.90
52275;DHT22;38228;50.940;4.024;2023-12-07T11:18:15;7.10;99.90
52275;DHT22;38228;50.940;4.024;2023-12-07T11:20:45;7.10;99.90
52275;DHT22;38228;50.940;4.024;2023-12-07T11:23:12;7.30;99.90
52275;DHT22;38228;50.940;4.024;2023-12-07T11:25:43;7.40;99.90
52275;DHT22;38228;50.940;4.024;2023-12-07T11:28:10;7.40;99.90
52275;DHT22;38228;50.940;4.024;2023-12-07T11:30:37;7.40;99.90
52275;DHT22;38228;50.940;4.024;2023-12-07T11:33:06;7.20;99.90
52275;DHT22;38228;50.940;4.024;2023-12-07T11:38:27;7.30;99.90
52275;DHT22;38228;50.940;4.024;2023-12-07T11:40:54;7.40;99.90
52275;DHT22;38228;50.940;4.024;2023-12-07T11:43:36;7.30;99.90
52275;DHT22;38228;50.940;4.024;2023-12-07T11:46:06;7.10;99.90
52275;DHT22;38228;50.940;4.024;2023-12-07T11:48:32;7.20;99.90
52275;DHT22;38228;50.940;4.024;2023-12-07T11:51:05;7.30;99.90
52275;DHT22;38228;50.940;4.024;2023-12-07T11:53:36;7.20;99.90
52275;DHT22;38228;50.940;4.024;2023-12-07T11:56:04;7.30;99.90
52275;DHT22;38228;50.940;4.024;2023-12-07T11:58:32;7.50;99.90
52275;DHT22;38228;50.940;4.024;2023-12-07T12:00:58;7.50;99.90
52275;DHT22;38228;50.940;4.024;2023-12-07T12:03:25;7.50;99.90
52275;DHT22;38228;50.940;4.024;2023-12-07T12:05:51;7.60;99.90
52275;DHT22;38228;50.940;4.024;2023-12-07T12:08:18;7.70;99.90
52275;DHT22;38228;50.940;4.024;2023-12-07T12:10:45;7.60;99.90
52275;DHT22;38228;50.940;4.024;2023-12-07T12:13:11;7.50;99.90
52275;DHT22;38228;50.940;4.024;2023-12-07T12:15:38;7.50;99.90
52275;DHT22;38228;50.940;4.024;2023-12-07T12:18:05;7.60;99.90
52275;DHT22;38228;50.940;4.024;2023-12-07T12:20:31;7.50;99.90
52275;DHT22;38228;50.940;4.024;2023-12-07T12:22:58;7.70;99.90
52275;DHT22;38228;50.940;4.024;2023-12-07T12:25:26;7.80;99.90
52275;DHT22;38228;50.940;4.024;2023-12-07T12:27:55;7.60;99.90
52275;DHT22;38228;50.940;4.024;2023-12-07T12:30:21;7.60;99.90
52275;DHT22;38228;50.940;4.024;2023-12-07T12:32:51;7.50;99.90
52275;DHT22;38228;50.940;4.024;2023-12-07T12:35:17;7.50;99.90
52275;DHT22;38228;50.940;4.024;2023-12-07T12:37:47;7.50;99.90
52275;DHT22;38228;50.940;4.024;2023-12-07T12:40:18;7.60;99.90
52275;DHT22;38228;50.940;4.024;2023-12-07T12:42:46;7.60;99.90
52275;DHT22;38228;50.940;4.024;2023-12-07T12:45:13;7.50;99.90
52275;DHT22;38228;50.940;4.024;2023-12-07T12:47:40;7.60;99.90
52275;DHT22;38228;50.940;4.024;2023-12-07T12:50:07;7.50;99.90
52275;DHT22;38228;50.940;4.024;2023-12-07T12:52:33;7.50;99.90
52275;DHT22;38228;50.940;4.024;2023-12-07T12:54:59;7.60;99.90
52275;DHT22;38228;50.940;4.024;2023-12-07T12:57:25;7.50;99.90
52275;DHT22;38228;50.940;4.024;2023-12-07T12:59:51;7.60;99.90
52275;DHT22;38228;50.940;4.024;2023-12-07T13:02:17;7.70;99.90
52275;DHT22;38228;50.940;4.024;2023-12-07T13:04:44;7.60;99.90
52275;DHT22;38228;50.940;4.024;2023-12-07T13:07:11;7.60;99.90
52275;DHT22;38228;50.940;4.024;2023-12-07T13:09:38;7.70;99.90
52275;DHT22;38228;50.940;4.024;2023-12-07T13:12:04;7.70;99.90
52275;DHT22;38228;50.940;4.024;2023-12-07T13:14:29;7.60;99.90
52275;DHT22;38228;50.940;4.024;2023-12-07T13:16:55;7.60;99.90
52275;DHT22;38228;50.940;4.024;2023-12-07T13:19:21;7.50;99.90
52275;DHT22;38228;50.940;4.024;2023-12-07T13:21:47;7.40;99.90
52275;DHT22;38228;50.940;4.024;2023-12-07T13:24:13;7.50;99.90
52275;DHT22;38228;50.940;4.024;2023-12-07T13:26:39;7.40;99.90
52275;DHT22;38228;50.940;4.024;2023-12-07T13:29:05;7.50;99.90
52275;DHT22;38228;50.940;4.024;2023-12-07T13:31:30;7.50;99.90
52275;DHT22;38228;50.940;4.024;2023-12-07T13:33:56;7.50;99.90
52275;DHT22;38228;50.940;4.024;2023-12-07T13:36:22;7.40;99.90
52275;DHT22;38228;50.940;4.024;2023-12-07T13:38:51;7.40;99.90
52275;DHT22;38228;50.940;4.024;2023-12-07T13:41:16;7.30;99.90
52275;DHT22;38228;50.940;4.024;2023-12-07T13:43:42;7.20;99.90
52275;DHT22;38228;50.940;4.024;2023-12-07T13:46:08;7.20;99.90
52275;DHT22;38228;50.940;4.024;2023-12-07T13:48:34;7.20;99.90
52275;DHT22;38228;50.940;4.024;2023-12-07T13:51:00;7.20;99.90
52275;DHT22;38228;50.940;4.024;2023-12-07T13:53:25;7.30;99.90
52275;DHT22;38228;50.940;4.024;2023-12-07T13:55:51;7.30;99.90
52275;DHT22;38228;50.940;4.024;2023-12-07T13:58:17;7.30;99.90
52275;DHT22;38228;50.940;4.024;2023-12-07T14:00:43;7.20;99.90
52275;DHT22;38228;50.940;4.024;2023-12-07T14:03:12;7.20;99.90
52275;DHT22;38228;50.940;4.024;2023-12-07T14:05:40;7.30;99.90
52275;DHT22;38228;50.940;4.024;2023-12-07T14:08:07;7.20;99.90
52275;DHT22;38228;50.940;4.024;2023-12-07T14:10:33;7.30;99.90
52275;DHT22;38228;50.940;4.024;2023-12-07T14:13:00;7.40;99.90
52275;DHT22;38228;50.940;4.024;2023-12-07T14:15:26;7.30;99.90
52275;DHT22;38228;50.940;4.024;2023-12-07T14:17:52;7.30;99.90
52275;DHT22;38228;50.940;4.024;2023-12-07T14:20:17;7.20;99.90
52275;DHT22;38228;50.940;4.024;2023-12-07T14:22:43;7.20;99.90
52275;DHT22;38228;50.940;4.024;2023-12-07T14:25:11;7.40;99.90
52275;DHT22;38228;50.940;4.024;2023-12-07T14:27:37;7.40;99.90
52275;DHT22;38228;50.940;4.024;2023-12-07T14:30:03;7.30;99.90
52275;DHT22;38228;50.940;4.024;2023-12-07T14:32:29;7.20;99.90
52275;DHT22;38228;50.940;4.024;2023-12-07T14:34:55;7.10;99.90
52275;DHT22;38228;50.940;4.024;2023-12-07T14:37:21;7.10;99.90
52275;DHT22;38228;50.940;4.024;2023-12-07T14:39:46;7.20;99.90
52275;DHT22;38228;50.940;4.024;2023-12-07T14:42:13;7.10;99.90
52275;DHT22;38228;50.940;4.024;2023-12-07T14:44:39;7.10;99.90
52275;DHT22;38228;50.940;4.024;2023-12-07T14:47:05;7.10;99.90
52275;DHT22;38228;50.940;4.024;2023-12-07T14:49:31;6.90;99.90
52275;DHT22;38228;50.940;4.024;2023-12-07T14:51:56;6.90;99.90
52275;DHT22;38228;50.940;4.024;2023-12-07T14:54:24;7.00;99.90
52275;DHT22;38228;50.940;4.024;2023-12-07T14:56:50;7.00;99.90
52275;DHT22;38228;50.940;4.024;2023-12-07T14:59:15;7.00;99.90
52275;DHT22;38228;50.940;4.024;2023-12-07T15:01:42;7.10;99.90
52275;DHT22;38228;50.940;4.024;2023-12-07T15:04:08;7.10;99.90
52275;DHT22;38228;50.940;4.024;2023-12-07T15:06:34;7.00;99.90
52275;DHT22;38228;50.940;4.024;2023-12-07T15:09:01;6.90;99.90
52275;DHT22;38228;50.940;4.024;2023-12-07T15:11:31;6.80;99.90
52275;DHT22;38228;50.940;4.024;2023-12-07T15:13:56;6.80;99.90
52275;DHT22;38228;50.940;4.024;2023-12-07T15:16:22;6.70;99.90
52275;DHT22;38228;50.940;4.024;2023-12-07T15:18:48;6.70;99.90
52275;DHT22;38228;50.940;4.024;2023-12-07T15:21:14;6.80;99.90
52275;DHT22;38228;50.940;4.024;2023-12-07T15:23:41;6.70;99.90
52275;DHT22;38228;50.940;4.024;2023-12-07T15:26:09;6.50;99.90
52275;DHT22;38228;50.940;4.024;2023-12-07T15:28:39;6.60;99.90
52275;DHT22;38228;50.940;4.024;2023-12-07T15:31:06;6.80;99.90
52275;DHT22;38228;50.940;4.024;2023-12-07T15:33:32;6.70;99.90
52275;DHT22;38228;50.940;4.024;2023-12-07T15:35:59;6.80;99.90
52275;DHT22;38228;50.940;4.024;2023-12-07T15:38:26;6.60;99.90
52275;DHT22;38228;50.940;4.024;2023-12-07T15:40:51;6.60;99.90
52275;DHT22;38228;50.940;4.024;2023-12-07T15:43:20;6.50;99.90
52275;DHT22;38228;50.940;4.024;2023-12-07T15:45:45;6.50;99.90
52275;DHT22;38228;50.940;4.024;2023-12-07T15:48:11;6.50;99.90
52275;DHT22;38228;50.940;4.024;2023-12-07T15:50:37;6.50;99.90
52275;DHT22;38228;50.940;4.024;2023-12-07T15:53:03;6.50;99.90
52275;DHT22;38228;50.940;4.024;2023-12-07T15:55:28;6.50;99.90
52275;DHT22;38228;50.940;4.024;2023-12-07T15:57:54;6.40;99.90
52275;DHT22;38228;50.940;4.024;2023-12-07T16:00:20;6.30;99.90
52275;DHT22;38228;50.940;4.024;2023-12-07T16:02:45;6.40;99.90